createdAt,value
2019-05-21T00:00:57.069Z,14.12
2019-05-21T00:01:56.989Z,14.11
2019-05-21T00:02:56.893Z,14.12
2019-05-21T00:03:56.817Z,14.11
2019-05-21T00:04:56.733Z,14.13
2019-05-21T00:05:56.652Z,14.13
2019-05-21T00:06:56.592Z,14.09
2019-05-21T00:07:56.485Z,14.12
2019-05-21T00:08:56.399Z,14.11
2019-05-21T00:09:56.331Z,14.12
2019-05-21T00:10:56.242Z,14.17
2019-05-21T00:11:56.182Z,14.17
2019-05-21T00:12:56.075Z,14.12
2019-05-21T00:13:55.998Z,14.16
2019-05-21T00:14:55.910Z,14.17
2019-05-21T00:15:55.836Z,14.21
2019-05-21T00:16:55.757Z,14.12
2019-05-21T00:17:55.671Z,14.13
2019-05-21T00:18:55.577Z,14.16
2019-05-21T00:19:55.503Z,14.20
2019-05-21T00:20:55.433Z,14.11
2019-05-21T00:21:55.358Z,14.20
2019-05-21T00:22:55.254Z,14.09
2019-05-21T00:23:55.175Z,14.17
2019-05-21T00:24:55.102Z,14.20
2019-05-21T00:25:55.006Z,14.13
2019-05-21T00:26:54.937Z,14.16
2019-05-21T00:27:54.861Z,14.05
2019-05-21T00:28:54.759Z,13.99
2019-05-21T00:29:54.675Z,14.04
2019-05-21T00:30:54.611Z,13.98
2019-05-21T00:31:54.535Z,13.94
2019-05-21T00:32:54.429Z,14.01
2019-05-21T00:33:54.353Z,13.96
2019-05-21T00:34:54.266Z,13.94
2019-05-21T00:35:54.193Z,13.99
2019-05-21T00:36:54.257Z,13.94
2019-05-21T00:37:54.042Z,14.04
2019-05-21T00:38:53.938Z,13.94
2019-05-21T00:39:53.865Z,13.99
2019-05-21T00:40:53.772Z,13.96
2019-05-21T00:41:53.699Z,13.94
2019-05-21T00:42:53.616Z,13.86
2019-05-21T00:43:53.531Z,13.83
2019-05-21T00:44:53.463Z,13.79
2019-05-21T00:45:53.366Z,13.76
2019-05-21T00:46:53.279Z,13.73
2019-05-21T00:47:53.215Z,13.79
2019-05-21T00:48:53.116Z,13.75
2019-05-21T00:49:53.038Z,13.72
2019-05-21T00:50:52.941Z,13.71
2019-05-21T00:52:06.451Z,13.75
2019-05-21T00:52:52.824Z,13.75
2019-05-21T00:53:52.711Z,13.71
2019-05-21T00:54:52.619Z,13.63
2019-05-21T00:55:52.539Z,13.59
2019-05-21T00:56:52.458Z,13.62
2019-05-21T00:57:52.391Z,13.53
2019-05-21T00:58:52.288Z,13.59
2019-05-21T00:59:52.218Z,13.66
2019-05-21T01:00:52.127Z,13.63
2019-05-21T01:01:52.050Z,13.63
2019-05-21T01:02:51.973Z,13.62
2019-05-21T01:03:51.877Z,13.62
2019-05-21T01:05:00.327Z,13.55
2019-05-21T01:05:51.724Z,13.55
2019-05-21T01:06:51.625Z,13.55
2019-05-21T01:07:51.569Z,13.51
2019-05-21T01:08:51.471Z,13.61
2019-05-21T01:09:51.385Z,13.53
2019-05-21T01:10:51.298Z,13.48
2019-05-21T01:11:51.218Z,13.57
2019-05-21T01:12:51.152Z,13.53
2019-05-21T01:13:51.059Z,13.47
2019-05-21T01:14:50.973Z,13.51
2019-05-21T01:15:50.945Z,13.51
2019-05-21T01:16:50.874Z,13.46
2019-05-21T01:17:50.740Z,13.48
2019-05-21T01:18:50.662Z,13.51
2019-05-21T01:19:50.559Z,13.48
2019-05-21T01:20:50.486Z,13.47
2019-05-21T01:21:50.399Z,13.48
2019-05-21T01:22:50.330Z,13.47
2019-05-21T01:23:50.233Z,13.47
2019-05-21T01:24:50.157Z,13.46
2019-05-21T01:25:50.065Z,13.39
2019-05-21T01:26:49.987Z,13.44
2019-05-21T01:27:49.917Z,13.44
2019-05-21T01:28:49.821Z,13.44
2019-05-21T01:29:49.737Z,13.44
2019-05-21T01:30:49.658Z,13.39
2019-05-21T01:31:49.567Z,13.41
2019-05-21T01:32:49.511Z,13.41
2019-05-21T01:33:49.402Z,13.47
2019-05-21T01:34:49.326Z,13.44
2019-05-21T01:35:49.245Z,13.41
2019-05-21T01:36:49.161Z,13.44
2019-05-21T01:37:49.085Z,13.53
2019-05-21T01:38:48.997Z,13.43
2019-05-21T01:39:48.914Z,13.46
2019-05-21T01:40:48.833Z,13.46
2019-05-21T01:41:48.749Z,13.44
2019-05-21T01:42:48.674Z,13.43
2019-05-21T01:43:48.581Z,13.48
2019-05-21T01:44:48.505Z,13.48
2019-05-21T01:45:48.419Z,13.50
2019-05-21T01:46:48.334Z,13.51
2019-05-21T01:47:48.271Z,13.41
2019-05-21T01:48:48.170Z,13.50
2019-05-21T01:49:48.085Z,13.48
2019-05-21T01:50:48.009Z,13.44
2019-05-21T01:51:47.921Z,13.39
2019-05-21T01:52:47.880Z,13.36
2019-05-21T01:53:47.765Z,13.46
2019-05-21T01:54:47.670Z,13.38
2019-05-21T01:55:47.636Z,13.41
2019-05-21T01:56:47.507Z,13.43
2019-05-21T01:57:47.444Z,13.44
2019-05-21T01:58:47.349Z,13.41
2019-05-21T01:59:47.268Z,13.44
2019-05-21T02:00:47.176Z,13.46
2019-05-21T02:01:47.106Z,13.44
2019-05-21T02:02:47.023Z,13.41
2019-05-21T02:03:46.929Z,13.36
2019-05-21T02:04:46.854Z,13.44
2019-05-21T02:05:46.765Z,13.46
2019-05-21T02:06:49.214Z,13.41
2019-05-21T02:07:46.618Z,13.32
2019-05-21T02:08:46.513Z,13.32
2019-05-21T02:09:46.437Z,13.44
2019-05-21T02:10:46.356Z,13.36
2019-05-21T02:11:46.274Z,13.28
2019-05-21T02:12:46.213Z,13.44
2019-05-21T02:13:46.114Z,13.35
2019-05-21T02:14:46.029Z,13.44
2019-05-21T02:15:45.943Z,13.38
2019-05-21T02:16:45.857Z,13.41
2019-05-21T02:17:45.798Z,13.35
2019-05-21T02:18:45.712Z,13.39
2019-05-21T02:19:45.616Z,13.32
2019-05-21T02:20:45.535Z,13.46
2019-05-21T02:21:45.451Z,13.44
2019-05-21T02:22:45.366Z,13.39
2019-05-21T02:23:45.308Z,13.32
2019-05-21T02:24:45.197Z,13.32
2019-05-21T02:25:45.123Z,13.43
2019-05-21T02:26:45.036Z,13.32
2019-05-21T02:27:44.953Z,13.29
2019-05-21T02:28:44.885Z,13.29
2019-05-21T02:29:44.801Z,13.43
2019-05-21T02:30:44.706Z,13.31
2019-05-21T02:31:44.631Z,13.29
2019-05-21T02:32:44.543Z,13.36
2019-05-21T02:33:44.467Z,13.29
2019-05-21T02:34:44.371Z,13.29
2019-05-21T02:35:54.119Z,13.38
2019-05-21T02:36:44.210Z,13.22
2019-05-21T02:37:44.129Z,13.32
2019-05-21T02:38:44.054Z,13.28
2019-05-21T02:39:43.965Z,13.24
2019-05-21T02:40:43.884Z,13.28
2019-05-21T02:41:43.798Z,13.22
2019-05-21T02:42:43.712Z,13.22
2019-05-21T02:43:43.662Z,13.24
2019-05-21T02:44:43.558Z,13.21
2019-05-21T02:45:43.473Z,13.21
2019-05-21T02:46:43.388Z,13.22
2019-05-21T02:47:43.306Z,13.28
2019-05-21T02:48:43.230Z,13.24
2019-05-21T02:49:43.137Z,13.24
2019-05-21T02:50:43.082Z,13.21
2019-05-21T02:51:42.978Z,13.21
2019-05-21T02:52:42.883Z,13.24
2019-05-21T02:53:42.818Z,13.22
2019-05-21T02:54:42.791Z,13.22
2019-05-21T02:55:42.650Z,13.17
2019-05-21T02:56:42.563Z,13.25
2019-05-21T02:57:42.498Z,13.25
2019-05-21T02:58:42.428Z,13.27
2019-05-21T02:59:42.315Z,13.29
2019-05-21T03:00:42.232Z,13.28
2019-05-21T03:01:42.151Z,13.19
2019-05-21T03:02:42.061Z,13.29
2019-05-21T03:03:41.997Z,13.28
2019-05-21T03:04:41.901Z,13.31
2019-05-21T03:05:41.822Z,13.19
2019-05-21T03:06:41.732Z,13.27
2019-05-21T03:07:41.655Z,13.25
2019-05-21T03:08:41.592Z,13.29
2019-05-21T03:09:41.489Z,13.27
2019-05-21T03:10:41.408Z,13.22
2019-05-21T03:11:41.325Z,13.24
2019-05-21T03:12:41.244Z,13.24
2019-05-21T03:13:41.168Z,13.27
2019-05-21T03:14:41.067Z,13.21
2019-05-21T03:15:41.001Z,13.25
2019-05-21T03:16:40.906Z,13.28
2019-05-21T03:17:40.822Z,13.27
2019-05-21T03:18:40.761Z,13.28
2019-05-21T03:19:40.661Z,13.28
2019-05-21T03:20:40.577Z,13.25
2019-05-21T03:21:40.505Z,13.21
2019-05-21T03:22:40.414Z,13.27
2019-05-21T03:23:40.341Z,13.21
2019-05-21T03:24:40.258Z,13.22
2019-05-21T03:25:40.164Z,13.25
2019-05-21T03:26:40.091Z,13.27
2019-05-21T03:27:40.006Z,13.29
2019-05-21T03:28:39.928Z,13.27
2019-05-21T03:29:39.836Z,13.29
2019-05-21T03:30:39.754Z,13.22
2019-05-21T03:31:39.675Z,13.25
2019-05-21T03:32:39.593Z,13.24
2019-05-21T03:33:39.668Z,13.21
2019-05-21T03:34:39.454Z,13.17
2019-05-21T03:35:39.344Z,13.21
2019-05-21T03:36:39.257Z,13.22
2019-05-21T03:37:39.175Z,13.28
2019-05-21T03:38:39.108Z,13.16
2019-05-21T03:39:39.018Z,13.22
2019-05-21T03:40:38.936Z,13.29
2019-05-21T03:41:38.850Z,13.25
2019-05-21T03:42:38.762Z,13.25
2019-05-21T03:43:38.702Z,13.22
2019-05-21T03:44:38.601Z,13.27
2019-05-21T03:45:38.511Z,13.24
2019-05-21T03:46:38.434Z,13.25
2019-05-21T03:47:38.345Z,13.21
2019-05-21T03:48:38.287Z,13.29
2019-05-21T03:49:38.176Z,13.27
2019-05-21T03:50:38.111Z,13.25
2019-05-21T03:51:38.017Z,13.32
2019-05-21T03:52:37.941Z,13.27
2019-05-21T03:53:37.878Z,13.22
2019-05-21T03:54:37.775Z,13.25
2019-05-21T03:55:37.688Z,13.21
2019-05-21T03:56:37.607Z,13.29
2019-05-21T03:57:37.519Z,13.32
2019-05-21T03:58:37.461Z,13.29
2019-05-21T03:59:37.355Z,13.35
2019-05-21T04:00:37.281Z,13.31
2019-05-21T04:01:37.187Z,13.27
2019-05-21T04:02:37.113Z,13.29
2019-05-21T04:03:37.035Z,13.35
2019-05-21T04:04:36.938Z,13.29
2019-05-21T04:05:36.876Z,13.29
2019-05-21T04:06:51.362Z,13.28
2019-05-21T04:07:36.696Z,13.39
2019-05-21T04:08:36.635Z,13.27
2019-05-21T04:09:36.533Z,13.28
2019-05-21T04:10:36.449Z,13.36
2019-05-21T04:11:36.367Z,13.38
2019-05-21T04:12:36.283Z,13.29
2019-05-21T04:13:36.215Z,13.41
2019-05-21T04:14:36.115Z,13.22
2019-05-21T04:15:36.028Z,13.29
2019-05-21T04:16:35.954Z,13.44
2019-05-21T04:17:35.865Z,13.39
2019-05-21T04:18:35.817Z,13.31
2019-05-21T04:19:35.713Z,13.29
2019-05-21T04:20:35.619Z,13.27
2019-05-21T04:21:35.546Z,13.29
2019-05-21T04:22:35.452Z,13.46
2019-05-21T04:23:35.389Z,13.36
2019-05-21T04:24:35.349Z,13.39
2019-05-21T04:25:35.214Z,13.35
2019-05-21T04:26:35.125Z,13.32
2019-05-21T04:27:35.047Z,13.43
2019-05-21T04:28:34.984Z,13.29
2019-05-21T04:29:34.876Z,13.32
2019-05-21T04:30:34.799Z,13.29
2019-05-21T04:31:34.716Z,13.39
2019-05-21T04:32:34.630Z,13.32
2019-05-21T04:33:34.590Z,13.39
2019-05-21T04:34:34.465Z,13.43
2019-05-21T04:35:34.399Z,13.31
2019-05-21T04:36:34.309Z,13.32
2019-05-21T04:37:34.253Z,13.43
2019-05-21T04:38:34.133Z,13.35
2019-05-21T04:39:34.077Z,13.41
2019-05-21T04:40:33.966Z,13.44
2019-05-21T04:41:33.883Z,13.36
2019-05-21T04:42:33.880Z,13.41
2019-05-21T04:43:33.723Z,13.44
2019-05-21T04:44:33.666Z,13.35
2019-05-21T04:45:33.666Z,13.39
2019-05-21T04:46:33.516Z,13.46
2019-05-21T04:47:33.393Z,13.36
2019-05-21T04:48:33.485Z,13.31
2019-05-21T04:49:33.246Z,13.35
2019-05-21T04:50:33.142Z,13.39
2019-05-21T04:51:33.091Z,13.47
2019-05-21T04:52:32.978Z,13.41
2019-05-21T04:53:32.898Z,13.43
2019-05-21T04:54:32.937Z,13.41
2019-05-21T04:55:32.729Z,13.41
2019-05-21T04:56:32.710Z,13.46
2019-05-21T04:57:32.568Z,13.44
2019-05-21T04:58:32.528Z,13.47
2019-05-21T04:59:32.419Z,13.43
2019-05-21T05:00:32.330Z,13.41
2019-05-21T05:01:32.233Z,13.38
2019-05-21T05:02:32.356Z,13.44
2019-05-21T05:03:32.070Z,13.43
2019-05-21T05:04:32.183Z,13.39
2019-05-21T05:05:31.911Z,13.43
2019-05-21T05:06:31.959Z,13.39
2019-05-21T05:07:31.740Z,13.41
2019-05-21T05:08:31.764Z,13.35
2019-05-21T05:09:31.585Z,13.53
2019-05-21T05:10:31.508Z,13.39
2019-05-21T05:11:31.524Z,13.31
2019-05-21T05:12:31.326Z,13.44
2019-05-21T05:13:31.243Z,13.44
2019-05-21T05:14:31.228Z,13.39
2019-05-21T05:15:31.098Z,13.46
2019-05-21T05:16:31.214Z,13.46
2019-05-21T05:17:30.930Z,13.48
2019-05-21T05:18:30.843Z,13.48
2019-05-21T05:19:30.788Z,13.46
2019-05-21T05:20:30.674Z,13.47
2019-05-21T05:21:30.586Z,13.43
2019-05-21T05:22:30.508Z,13.32
2019-05-21T05:23:30.418Z,13.41
2019-05-21T05:24:30.371Z,13.32
2019-05-21T05:25:30.255Z,13.36
2019-05-21T05:26:30.187Z,13.44
2019-05-21T05:27:30.093Z,13.41
2019-05-21T05:28:30.017Z,13.44
2019-05-21T05:29:29.950Z,13.43
2019-05-21T05:30:29.845Z,13.44
2019-05-21T05:31:29.771Z,13.43
2019-05-21T05:32:29.693Z,13.44
2019-05-21T05:33:29.596Z,13.38
2019-05-21T05:34:29.538Z,13.47
2019-05-21T05:35:29.431Z,13.46
2019-05-21T05:36:29.350Z,13.46
2019-05-21T05:37:42.832Z,13.41
2019-05-21T05:38:29.189Z,13.36
2019-05-21T05:39:29.127Z,13.44
2019-05-21T05:40:29.045Z,13.47
2019-05-21T05:41:28.999Z,13.38
2019-05-21T05:42:28.865Z,13.41
2019-05-21T05:43:28.771Z,13.38
2019-05-21T05:44:28.723Z,13.43
2019-05-21T05:45:28.612Z,13.47
2019-05-21T05:46:28.533Z,13.44
2019-05-21T05:47:28.442Z,13.46
2019-05-21T05:48:28.373Z,13.31
2019-05-21T05:49:28.298Z,13.43
2019-05-21T05:50:28.200Z,13.79
2019-05-21T05:51:28.125Z,13.93
2019-05-21T05:52:28.027Z,13.31
2019-05-21T05:53:27.949Z,13.41
2019-05-21T05:54:27.902Z,13.44
2019-05-21T05:55:27.787Z,13.41
2019-05-21T05:56:27.710Z,13.39
2019-05-21T05:57:27.619Z,13.41
2019-05-21T05:58:27.591Z,13.43
2019-05-21T05:59:27.458Z,13.44
2019-05-21T06:00:27.386Z,13.46
2019-05-21T06:01:27.294Z,13.48
2019-05-21T06:02:27.214Z,13.43
2019-05-21T06:03:27.130Z,13.41
2019-05-21T06:04:30.413Z,13.41
2019-05-21T06:05:26.976Z,13.48
2019-05-21T06:06:26.885Z,13.46
2019-05-21T06:07:26.797Z,13.44
2019-05-21T06:08:26.726Z,13.32
2019-05-21T06:09:26.642Z,13.53
2019-05-21T06:10:26.567Z,13.46
2019-05-21T06:11:26.470Z,13.44
2019-05-21T06:12:26.397Z,13.44
2019-05-21T06:13:26.304Z,13.39
2019-05-21T06:14:26.229Z,13.46
2019-05-21T06:15:26.155Z,13.46
2019-05-21T06:16:26.117Z,13.48
2019-05-21T06:17:25.981Z,13.41
2019-05-21T06:18:25.902Z,13.47
2019-05-21T06:19:25.839Z,13.39
2019-05-21T06:20:25.740Z,13.44
2019-05-21T06:21:25.652Z,13.43
2019-05-21T06:22:25.562Z,13.44
2019-05-21T06:23:25.492Z,13.47
2019-05-21T06:24:25.398Z,13.39
2019-05-21T06:25:25.338Z,13.47
2019-05-21T06:26:25.234Z,13.41
2019-05-21T06:27:25.155Z,13.39
2019-05-21T06:28:25.071Z,13.47
2019-05-21T06:29:24.991Z,13.44
2019-05-21T06:30:24.916Z,13.39
2019-05-21T06:31:24.897Z,13.44
2019-05-21T06:32:24.756Z,13.43
2019-05-21T06:33:24.659Z,13.47
2019-05-21T06:34:24.580Z,13.48
2019-05-21T06:35:24.516Z,13.47
2019-05-21T06:36:24.410Z,13.54
2019-05-21T06:37:24.322Z,13.47
2019-05-21T06:38:24.254Z,13.46
2019-05-21T06:39:24.164Z,13.47
2019-05-21T06:40:24.097Z,13.46
2019-05-21T06:41:24.000Z,13.51
2019-05-21T06:42:23.931Z,13.51
2019-05-21T06:43:23.845Z,13.44
2019-05-21T06:44:23.762Z,13.54
2019-05-21T06:45:23.701Z,13.54
2019-05-21T06:46:23.587Z,13.55
2019-05-21T06:47:23.517Z,13.38
2019-05-21T06:48:23.434Z,13.44
2019-05-21T06:49:23.343Z,13.46
2019-05-21T06:50:23.273Z,13.44
2019-05-21T06:51:23.186Z,13.46
2019-05-21T06:52:23.090Z,13.48
2019-05-21T06:53:23.010Z,13.51
2019-05-21T06:54:22.926Z,13.51
2019-05-21T06:55:22.869Z,13.43
2019-05-21T06:56:22.759Z,13.38
2019-05-21T06:57:22.685Z,13.44
2019-05-21T06:58:22.621Z,13.51
2019-05-21T06:59:22.515Z,13.51
2019-05-21T07:00:22.455Z,13.43
2019-05-21T07:01:28.281Z,13.50
2019-05-21T07:02:22.268Z,13.48
2019-05-21T07:03:22.200Z,13.36
2019-05-21T07:04:22.102Z,13.50
2019-05-21T07:05:22.038Z,13.43
2019-05-21T07:06:21.949Z,13.46
2019-05-21T07:07:21.863Z,13.44
2019-05-21T07:08:34.266Z,13.41
2019-05-21T07:09:21.696Z,13.46
2019-05-21T07:10:21.629Z,13.43
2019-05-21T07:11:21.528Z,13.24
2019-05-21T07:12:21.468Z,13.27
2019-05-21T07:13:21.364Z,13.29
2019-05-21T07:14:21.285Z,13.25
2019-05-21T07:15:21.218Z,13.24
2019-05-21T07:16:21.132Z,13.24
2019-05-21T07:17:21.035Z,13.22
2019-05-21T07:18:20.962Z,13.16
2019-05-21T07:19:20.877Z,13.24
2019-05-21T07:20:20.808Z,13.14
2019-05-21T07:21:20.709Z,13.21
2019-05-21T07:22:20.642Z,13.16
2019-05-21T07:23:20.553Z,13.25
2019-05-21T07:24:20.472Z,13.19
2019-05-21T07:25:20.393Z,13.22
2019-05-21T07:26:20.382Z,13.25
2019-05-21T07:27:20.213Z,13.25
2019-05-21T07:28:20.154Z,13.19
2019-05-21T07:29:20.098Z,13.24
2019-05-21T07:30:19.991Z,13.12
2019-05-21T07:31:19.887Z,13.17
2019-05-21T07:32:19.816Z,13.19
2019-05-21T07:33:19.730Z,13.22
2019-05-21T07:34:19.678Z,13.16
2019-05-21T07:35:19.565Z,13.13
2019-05-21T07:36:19.483Z,13.14
2019-05-21T07:37:19.395Z,13.10
2019-05-21T07:38:19.310Z,13.24
2019-05-21T07:39:19.239Z,13.16
2019-05-21T07:40:19.175Z,13.16
2019-05-21T07:41:20.338Z,13.13
2019-05-21T07:42:19.045Z,13.13
2019-05-21T07:43:18.897Z,13.17
2019-05-21T07:44:18.824Z,13.14
2019-05-21T07:45:18.759Z,13.14
2019-05-21T07:46:18.663Z,13.21
2019-05-21T07:47:18.575Z,13.28
2019-05-21T07:48:18.514Z,13.25
2019-05-21T07:49:18.403Z,13.28
2019-05-21T07:50:18.343Z,13.31
2019-05-21T07:51:18.256Z,13.31
2019-05-21T07:52:18.172Z,13.22
2019-05-21T07:53:18.078Z,13.29
2019-05-21T07:54:17.991Z,13.31
2019-05-21T07:55:17.932Z,13.32
2019-05-21T07:56:17.844Z,13.27
2019-05-21T07:57:17.746Z,13.25
2019-05-21T07:58:17.670Z,13.24
2019-05-21T07:59:17.589Z,13.28
2019-05-21T08:00:17.529Z,13.24
2019-05-21T08:01:17.418Z,13.22
2019-05-21T08:02:17.343Z,13.25
2019-05-21T08:03:17.255Z,13.29
2019-05-21T08:04:17.174Z,13.29
2019-05-21T08:05:17.112Z,13.41
2019-05-21T08:06:17.019Z,13.24
2019-05-21T08:07:16.931Z,13.32
2019-05-21T08:08:16.842Z,13.25
2019-05-21T08:09:16.756Z,13.25
2019-05-21T08:10:16.713Z,13.24
2019-05-21T08:11:16.597Z,13.22
2019-05-21T08:12:35.431Z,13.27
2019-05-21T08:13:16.439Z,13.17
2019-05-21T08:14:16.364Z,13.22
2019-05-21T08:15:16.275Z,13.19
2019-05-21T08:16:16.212Z,13.13
2019-05-21T08:17:16.121Z,13.17
2019-05-21T08:18:16.023Z,13.13
2019-05-21T08:19:15.945Z,13.14
2019-05-21T08:20:15.871Z,13.13
2019-05-21T08:21:15.787Z,13.19
2019-05-21T08:22:15.698Z,13.17
2019-05-21T08:23:15.619Z,13.10
2019-05-21T08:24:15.531Z,13.21
2019-05-21T08:25:15.454Z,13.07
2019-05-21T08:26:15.381Z,13.10
2019-05-21T08:27:15.293Z,13.19
2019-05-21T08:28:15.203Z,13.14
2019-05-21T08:29:15.121Z,13.16
2019-05-21T08:30:15.038Z,13.21
2019-05-21T08:31:14.968Z,13.29
2019-05-21T08:32:14.876Z,13.29
2019-05-21T08:33:14.807Z,13.35
2019-05-21T08:34:14.714Z,13.29
2019-05-21T08:35:14.621Z,13.29
2019-05-21T08:36:14.572Z,13.29
2019-05-21T08:37:14.473Z,13.28
2019-05-21T08:38:14.382Z,13.28
2019-05-21T08:39:27.650Z,13.31
2019-05-21T08:40:14.219Z,13.28
2019-05-21T08:41:14.179Z,13.24
2019-05-21T08:42:14.053Z,13.16
2019-05-21T08:43:13.994Z,13.21
2019-05-21T08:44:13.880Z,13.22
2019-05-21T08:45:13.798Z,13.22
2019-05-21T08:46:13.745Z,13.22
2019-05-21T08:47:13.633Z,13.10
2019-05-21T08:48:13.564Z,13.21
2019-05-21T08:49:13.470Z,13.19
2019-05-21T08:50:13.392Z,13.16
2019-05-21T08:51:13.329Z,13.19
2019-05-21T08:52:13.229Z,13.21
2019-05-21T08:53:13.149Z,13.12
2019-05-21T08:54:13.096Z,13.12
2019-05-21T08:55:12.980Z,13.12
2019-05-21T08:56:12.928Z,13.19
2019-05-21T08:57:12.813Z,13.19
2019-05-21T08:58:12.732Z,13.13
2019-05-21T08:59:12.657Z,13.28
2019-05-21T09:00:12.572Z,13.24
2019-05-21T09:01:12.493Z,13.24
2019-05-21T09:02:12.427Z,13.29
2019-05-21T09:03:12.333Z,13.28
2019-05-21T09:04:12.246Z,13.29
2019-05-21T09:05:12.160Z,13.31
2019-05-21T09:06:12.099Z,13.29
2019-05-21T09:07:11.990Z,13.24
2019-05-21T09:08:11.908Z,13.25
2019-05-21T09:09:11.824Z,13.28
2019-05-21T09:10:11.749Z,13.29
2019-05-21T09:11:11.670Z,13.32
2019-05-21T09:12:11.585Z,13.46
2019-05-21T09:13:11.616Z,13.32
2019-05-21T09:14:11.451Z,13.31
2019-05-21T09:15:11.333Z,13.39
2019-05-21T09:16:11.264Z,13.46
2019-05-21T09:17:11.163Z,13.36
2019-05-21T09:18:11.090Z,13.46
2019-05-21T09:19:10.998Z,13.44
2019-05-21T09:20:10.926Z,13.46
2019-05-21T09:21:10.844Z,13.50
2019-05-21T09:22:10.753Z,13.47
2019-05-21T09:23:10.681Z,13.51
2019-05-21T09:24:10.604Z,13.41
2019-05-21T09:25:10.503Z,13.43
2019-05-21T09:26:10.440Z,13.43
2019-05-21T09:27:10.344Z,13.48
2019-05-21T09:28:10.257Z,13.44
2019-05-21T09:29:10.192Z,13.59
2019-05-21T09:30:10.100Z,13.57
2019-05-21T09:31:10.048Z,13.59
2019-05-21T09:32:09.940Z,13.48
2019-05-21T09:33:09.848Z,13.48
2019-05-21T09:34:09.777Z,13.61
2019-05-21T09:35:09.690Z,13.61
2019-05-21T09:36:09.613Z,13.62
2019-05-21T09:37:19.401Z,13.61
2019-05-21T09:38:09.446Z,13.62
2019-05-21T09:39:09.361Z,13.61
2019-05-21T09:40:09.274Z,13.61
2019-05-21T09:41:09.209Z,13.57
2019-05-21T09:42:09.106Z,13.54
2019-05-21T09:43:09.043Z,13.51
2019-05-21T09:44:08.948Z,13.50
2019-05-21T09:45:08.881Z,13.50
2019-05-21T09:46:08.793Z,13.53
2019-05-21T09:47:08.743Z,13.54
2019-05-21T09:48:08.623Z,13.63
2019-05-21T09:49:08.537Z,13.59
2019-05-21T09:50:08.465Z,13.62
2019-05-21T09:51:08.394Z,13.65
2019-05-21T09:52:08.288Z,13.57
2019-05-21T09:53:08.212Z,13.62
2019-05-21T09:54:08.129Z,13.57
2019-05-21T09:55:08.046Z,13.57
2019-05-21T09:56:07.977Z,13.51
2019-05-21T09:57:07.879Z,13.51
2019-05-21T09:58:07.795Z,13.48
2019-05-21T09:59:07.740Z,13.61
2019-05-21T10:00:07.639Z,13.68
2019-05-21T10:01:07.563Z,13.68
2019-05-21T10:02:07.463Z,13.75
2019-05-21T10:03:07.401Z,13.79
2019-05-21T10:04:07.303Z,13.83
2019-05-21T10:05:07.230Z,13.79
2019-05-21T10:06:07.161Z,13.73
2019-05-21T10:07:07.068Z,13.79
2019-05-21T10:08:06.992Z,13.80
2019-05-21T10:09:06.898Z,13.79
2019-05-21T10:10:06.811Z,13.73
2019-05-21T10:11:06.760Z,13.72
2019-05-21T10:12:06.644Z,13.72
2019-05-21T10:13:06.567Z,13.66
2019-05-21T10:14:06.490Z,13.75
2019-05-21T10:15:06.404Z,13.79
2019-05-21T10:16:06.319Z,13.75
2019-05-21T10:17:06.261Z,13.84
2019-05-21T10:18:06.157Z,13.81
2019-05-21T10:19:06.076Z,13.81
2019-05-21T10:20:05.997Z,13.72
2019-05-21T10:21:05.906Z,13.76
2019-05-21T10:22:05.939Z,13.72
2019-05-21T10:23:05.748Z,13.79
2019-05-21T10:24:05.664Z,13.71
2019-05-21T10:25:05.593Z,13.65
2019-05-21T10:26:05.496Z,13.73
2019-05-21T10:27:05.441Z,13.66
2019-05-21T10:28:05.341Z,13.79
2019-05-21T10:29:05.266Z,13.69
2019-05-21T10:30:05.173Z,13.73
2019-05-21T10:31:05.100Z,13.83
2019-05-21T10:32:05.024Z,13.88
2019-05-21T10:33:04.928Z,13.87
2019-05-21T10:34:04.848Z,13.86
2019-05-21T10:35:05.040Z,13.84
2019-05-21T10:36:04.679Z,13.87
2019-05-21T10:37:04.616Z,13.76
2019-05-21T10:38:04.521Z,13.91
2019-05-21T10:39:04.434Z,13.96
2019-05-21T10:40:04.360Z,13.93
2019-05-21T10:41:04.273Z,13.99
2019-05-21T10:42:04.205Z,13.91
2019-05-21T10:43:04.129Z,13.94
2019-05-21T10:44:04.031Z,13.93
2019-05-21T10:45:03.943Z,13.88
2019-05-21T10:46:03.863Z,13.88
2019-05-21T10:47:03.793Z,13.87
2019-05-21T10:48:03.699Z,13.84
2019-05-21T10:49:03.618Z,13.87
2019-05-21T10:50:03.533Z,13.87
2019-05-21T10:51:03.448Z,13.86
2019-05-21T10:52:03.392Z,13.88
2019-05-21T10:53:03.291Z,13.81
2019-05-21T10:54:03.210Z,13.73
2019-05-21T10:55:03.127Z,13.71
2019-05-21T10:56:03.211Z,13.75
2019-05-21T10:57:02.978Z,13.73
2019-05-21T10:58:02.886Z,13.71
2019-05-21T10:59:02.808Z,13.79
2019-05-21T11:00:02.717Z,13.88
2019-05-21T11:01:02.635Z,13.86
2019-05-21T11:02:02.579Z,13.88
2019-05-21T11:03:02.472Z,13.81
2019-05-21T11:04:02.384Z,13.73
2019-05-21T11:05:02.312Z,13.88
2019-05-21T11:06:10.218Z,13.86
2019-05-21T11:07:02.190Z,13.90
2019-05-21T11:08:22.847Z,13.81
2019-05-21T11:09:01.974Z,13.86
2019-05-21T11:10:01.907Z,13.87
2019-05-21T11:11:01.818Z,13.91
2019-05-21T11:12:01.746Z,13.88
2019-05-21T11:13:01.645Z,13.91
2019-05-21T11:14:01.577Z,13.88
2019-05-21T11:15:01.493Z,13.96
2019-05-21T11:16:01.420Z,13.91
2019-05-21T11:17:01.351Z,13.94
2019-05-21T11:18:10.642Z,13.91
2019-05-21T11:19:01.161Z,13.88
2019-05-21T11:20:01.083Z,13.96
2019-05-21T11:21:01.008Z,13.99
2019-05-21T11:22:00.932Z,13.86
2019-05-21T11:23:00.834Z,13.87
2019-05-21T11:24:00.827Z,13.96
2019-05-21T11:25:00.677Z,13.88
2019-05-21T11:26:00.589Z,14.01
2019-05-21T11:27:00.531Z,13.96
2019-05-21T11:28:00.423Z,13.96
2019-05-21T11:29:00.345Z,13.94
2019-05-21T11:30:00.273Z,13.99
2019-05-21T11:31:00.181Z,13.96
2019-05-21T11:32:00.106Z,13.91
2019-05-21T11:33:00.015Z,13.99
2019-05-21T11:33:59.934Z,13.87
2019-05-21T11:34:59.857Z,13.87
2019-05-21T11:35:59.763Z,13.88
2019-05-21T11:36:59.725Z,13.93
2019-05-21T11:37:59.599Z,13.93
2019-05-21T11:38:59.523Z,13.93
2019-05-21T11:39:59.447Z,13.93
2019-05-21T11:40:59.380Z,13.94
2019-05-21T11:41:59.279Z,13.90
2019-05-21T11:42:59.252Z,13.94
2019-05-21T11:43:59.113Z,13.96
2019-05-21T11:44:59.029Z,13.98
2019-05-21T11:46:02.692Z,13.96
2019-05-21T11:46:58.864Z,13.96
2019-05-21T11:47:58.796Z,13.99
2019-05-21T11:48:58.708Z,13.96
2019-05-21T11:49:58.634Z,13.93
2019-05-21T11:50:58.548Z,14.09
2019-05-21T11:51:58.458Z,14.04
2019-05-21T11:52:58.396Z,14.06
2019-05-21T11:53:58.295Z,14.08
2019-05-21T11:54:58.215Z,14.08
2019-05-21T11:55:58.137Z,14.04
2019-05-21T11:56:58.159Z,14.06
2019-05-21T11:57:57.979Z,14.06
2019-05-21T11:58:57.899Z,14.06
2019-05-21T11:59:57.799Z,14.13
2019-05-21T12:00:57.729Z,14.06
2019-05-21T12:01:57.654Z,14.16
2019-05-21T12:02:57.600Z,14.19
2019-05-21T12:03:57.476Z,14.16
2019-05-21T12:04:57.405Z,14.17
2019-05-21T12:05:57.313Z,14.04
2019-05-21T12:06:57.239Z,14.04
2019-05-21T12:07:57.159Z,14.20
2019-05-21T12:08:57.479Z,14.13
2019-05-21T12:09:56.990Z,14.13
2019-05-21T12:10:56.905Z,14.12
2019-05-21T12:11:56.823Z,14.13
2019-05-21T12:12:56.761Z,14.19
2019-05-21T12:13:56.666Z,14.09
2019-05-21T12:14:56.586Z,14.21
2019-05-21T12:15:56.505Z,14.12
2019-05-21T12:16:56.425Z,14.04
2019-05-21T12:17:56.353Z,14.13
2019-05-21T12:18:56.259Z,14.13
2019-05-21T12:19:56.173Z,14.11
2019-05-21T12:20:56.091Z,14.02
2019-05-21T12:21:56.002Z,14.08
2019-05-21T12:22:55.953Z,14.06
2019-05-21T12:23:55.846Z,14.12
2019-05-21T12:24:55.762Z,14.08
2019-05-21T12:25:55.679Z,14.01
2019-05-21T12:26:55.607Z,13.94
2019-05-21T12:27:55.527Z,14.08
2019-05-21T12:28:55.433Z,14.02
2019-05-21T12:29:55.366Z,14.06
2019-05-21T12:30:55.274Z,14.06
2019-05-21T12:31:55.188Z,14.08
2019-05-21T12:32:55.131Z,14.01
2019-05-21T12:33:55.022Z,14.08
2019-05-21T12:34:54.950Z,13.96
2019-05-21T12:35:54.868Z,13.94
2019-05-21T12:36:54.796Z,13.98
2019-05-21T12:37:54.709Z,14.02
2019-05-21T12:38:54.625Z,13.99
2019-05-21T12:39:54.542Z,13.96
2019-05-21T12:40:54.456Z,13.98
2019-05-21T12:41:54.375Z,13.94
2019-05-21T12:42:54.327Z,13.93
2019-05-21T12:43:54.205Z,13.98
2019-05-21T12:44:54.134Z,13.99
2019-05-21T12:45:54.048Z,13.87
2019-05-21T12:46:53.964Z,13.96
2019-05-21T12:47:53.891Z,13.98
2019-05-21T12:48:53.807Z,13.94
2019-05-21T12:49:53.713Z,13.98
2019-05-21T12:50:53.640Z,13.90
2019-05-21T12:51:53.595Z,13.96